Time;durP1;ratioP1;P1;durP2;ratioP2;P2;SDS_P1;SDS_P2;PMS_P1;PMS_P2;Temp;Humidity;BMP_temperature;BMP_pressure;BME280_temperature;BME280_humidity;BME280_pressure;Samples;Min_cycle;Max_cycle;Signal;HPM_P1;HPM_P2
2022/09/21 00:04:10;;;;;;;0.63;0.30;;;10.70;99.90;;;;;;20959001;28;20029;-81
2022/09/21 00:14:13;;;;;;;2.25;0.60;;;10.60;99.90;;;;;;20971019;28;20040;-81
2022/09/21 00:24:14;;;;;;;0.73;0.40;;;10.60;99.90;;;;;;20964571;28;20040;-81
2022/09/21 00:34:15;;;;;;;0.63;0.40;;;10.60;99.90;;;;;;20967336;28;20036;-81
2022/09/21 00:44:24;;;;;;;1.63;0.60;;;10.70;99.90;;;;;;20965003;28;20048;-81
2022/09/21 00:54:32;;;;;;;0.85;0.43;;;10.80;99.90;;;;;;20957895;28;20772;-81
2022/09/21 01:04:33;;;;;;;1.98;0.50;;;10.70;99.90;;;;;;20940283;28;20058;-81
2022/09/21 01:14:53;;;;;;;0.77;0.40;;;10.60;99.90;;;;;;20915819;28;20041;-80
2022/09/21 01:25:14;;;;;;;1.00;0.68;;;10.50;99.90;;;;;;20949015;28;20345;-80
2022/09/21 01:35:23;;;;;;;1.25;1.00;;;10.40;99.90;;;;;;20949863;28;20040;-80
2022/09/21 01:45:36;;;;;;;1.08;0.57;;;10.30;99.90;;;;;;20935836;28;20664;-79
2022/09/21 01:55:49;;;;;;;0.57;0.30;;;10.20;99.90;;;;;;20973501;28;20039;-80
2022/09/21 02:05:50;;;;;;;1.35;0.35;;;10.10;99.90;;;;;;20944274;28;20522;-80
2022/09/21 02:16:01;;;;;;;2.42;1.58;;;9.90;99.90;;;;;;20994990;28;20029;-80
2022/09/21 02:26:09;;;;;;;0.55;0.25;;;9.90;99.90;;;;;;20932998;28;20106;-79
2022/09/21 02:36:30;;;;;;;;;;;9.70;99.90;;;;;;20960357;28;20040;-79
2022/09/21 02:46:42;;;;;;;0.85;0.30;;;9.70;99.90;;;;;;20959329;28;19970;-79
2022/09/21 02:56:46;;;;;;;1.38;0.43;;;9.70;99.90;;;;;;20944247;28;21425;-80
2022/09/21 03:06:47;;;;;;;1.60;0.73;;;9.70;99.90;;;;;;20934800;28;20426;-80
2022/09/21 03:16:48;;;;;;;4.53;0.32;;;9.60;99.90;;;;;;20918477;28;20129;-79
2022/09/21 03:26:49;;;;;;;0.57;0.30;;;9.60;99.90;;;;;;20935969;28;20036;-80
2022/09/21 03:36:50;;;;;;;0.40;0.13;;;9.50;99.90;;;;;;20919948;28;20052;-80
2022/09/21 03:46:52;;;;;;;2.08;0.60;;;9.40;99.90;;;;;;20926732;28;20264;-80
2022/09/21 03:56:53;;;;;;;0.88;0.30;;;9.40;99.90;;;;;;20929123;28;20032;-80
2022/09/21 04:06:54;;;;;;;0.75;0.30;;;9.30;99.90;;;;;;20955615;28;20044;-79
2022/09/21 04:16:56;;;;;;;0.95;0.43;;;9.20;99.90;;;;;;20919841;28;20043;-80
2022/09/21 04:26:57;;;;;;;1.60;0.88;;;9.10;99.90;;;;;;20935953;28;20036;-80
2022/09/21 04:36:58;;;;;;;0.82;0.43;;;9.00;99.90;;;;;;20921683;28;20045;-80
2022/09/21 04:46:59;;;;;;;1.38;0.50;;;9.00;99.90;;;;;;20957141;28;20112;-80
2022/09/21 04:57:01;;;;;;;1.17;0.57;;;9.60;99.90;;;;;;20955011;28;20039;-80
2022/09/21 05:07:03;;;;;;;1.58;0.73;;;9.60;99.90;;;;;;20947337;28;20511;-80
2022/09/21 05:17:04;;;;;;;1.05;0.55;;;9.30;99.90;;;;;;20963199;28;20483;-80
2022/09/21 05:27:05;;;;;;;0.90;0.43;;;9.20;99.90;;;;;;20925614;28;20044;-80
2022/09/21 05:37:23;;;;;;;0.77;0.40;;;9.10;99.90;;;;;;20918323;28;20043;-79
2022/09/21 05:47:55;;;;;;;0.85;0.38;;;8.90;99.90;;;;;;20889222;28;21117;-78
2022/09/21 05:58:25;;;;;;;3.22;1.05;;;8.80;99.90;;;;;;20913783;28;22754;-78
2022/09/21 06:08:26;;;;;;;3.20;1.13;;;8.80;99.90;;;;;;20910033;28;20774;-80
2022/09/21 06:18:27;;;;;;;15.80;10.90;;;8.90;99.90;;;;;;20962707;28;20036;-80
2022/09/21 06:28:28;;;;;;;5.10;2.17;;;9.10;99.90;;;;;;20924185;28;20407;-80
2022/09/21 06:38:29;;;;;;;4.65;2.38;;;9.40;99.90;;;;;;20971239;28;20032;-80
2022/09/21 06:48:32;;;;;;;4.30;0.90;;;9.90;99.90;;;;;;20955410;28;20052;-80
2022/09/21 06:58:34;;;;;;;3.88;1.23;;;10.30;99.90;;;;;;20970041;28;20094;-81
2022/09/21 07:08:35;;;;;;;3.75;1.25;;;10.60;99.90;;;;;;20937305;28;20033;-80
2022/09/21 07:18:38;;;;;;;2.00;0.60;;;10.80;99.90;;;;;;20936362;28;20041;-80
2022/09/21 07:28:39;;;;;;;3.30;1.75;;;11.10;99.90;;;;;;20943648;28;20228;-79
2022/09/21 07:38:42;;;;;;;6.53;2.30;;;11.40;99.90;;;;;;20964283;28;20040;-80
2022/09/21 07:48:43;;;;;;;4.55;1.80;;;11.80;99.90;;;;;;20933816;28;20049;-80
2022/09/21 07:59:05;;;;;;;4.40;1.50;;;12.10;99.90;;;;;;20910808;28;20045;-80
2022/09/21 08:09:07;;;;;;;3.08;0.60;;;12.60;99.90;;;;;;20938026;28;20475;-79
2022/09/21 08:19:08;;;;;;;0.77;0.30;;;12.90;99.90;;;;;;20936421;28;20482;-80
2022/09/21 08:29:09;;;;;;;3.20;0.57;;;13.30;99.90;;;;;;20940495;28;20094;-82
2022/09/21 08:39:11;;;;;;;1.85;0.77;;;13.70;99.90;;;;;;20923900;28;20035;-81
2022/09/21 08:49:18;;;;;;;0.52;0.20;;;14.00;99.90;;;;;;20907810;28;20056;-84
2022/09/21 08:59:19;;;;;;;0.67;0.20;;;14.40;99.90;;;;;;20904099;28;20032;-82
2022/09/21 09:09:58;;;;;;;0.90;0.20;;;14.70;99.90;;;;;;20899813;28;20506;-81
2022/09/21 09:20:09;;;;;;;2.45;0.30;;;15.00;99.90;;;;;;20897102;28;20064;-81
2022/09/21 09:30:25;;;;;;;0.75;0.15;;;15.00;99.90;;;;;;20896528;28;20041;-81
2022/09/21 09:40:47;;;;;;;2.80;0.22;;;15.00;99.90;;;;;;20944878;28;20162;-80
2022/09/21 09:50:48;;;;;;;0.30;0.17;;;15.20;99.90;;;;;;20938190;28;20726;-80
2022/09/21 10:00:55;;;;;;;3.38;1.05;;;15.40;99.90;;;;;;20926656;28;20040;-81
2022/09/21 10:10:56;;;;;;;0.73;0.50;;;15.40;99.90;;;;;;20916332;28;20074;-81
2022/09/21 10:21:03;;;;;;;1.02;0.32;;;15.20;99.90;;;;;;20937425;28;20557;-80
2022/09/21 10:31:07;;;;;;;1.00;0.20;;;15.20;99.90;;;;;;20941225;28;20040;-80
2022/09/21 10:41:10;;;;;;;0.43;0.13;;;15.60;99.90;;;;;;20963776;28;20048;-82
2022/09/21 10:51:29;;;;;;;0.70;0.13;;;16.00;99.90;;;;;;20935568;28;20075;-80
2022/09/21 11:01:30;;;;;;;1.55;0.60;;;16.00;99.90;;;;;;20927122;28;20982;-80
2022/09/21 11:11:48;;;;;;;1.48;0.75;;;15.80;99.90;;;;;;20934976;28;20307;-81
2022/09/21 11:21:57;;;;;;;0.28;0.10;;;16.30;99.90;;;;;;20917630;28;20801;-78
2022/09/21 11:32:21;;;;;;;0.43;0.10;;;16.50;99.90;;;;;;20912797;28;20480;-78
2022/09/21 11:42:33;;;;;;;1.45;0.10;;;16.20;99.90;;;;;;20875271;28;21943;-77
2022/09/21 11:53:13;;;;;;;0.32;0.10;;;17.20;99.90;;;;;;20846691;28;20033;-77
2022/09/21 12:03:39;;;;;;;0.00;0.00;;;18.40;99.90;;;;;;20852862;28;20525;-76
2022/09/21 12:14:01;;;;;;;0.63;0.20;;;19.20;99.50;;;;;;20842547;28;20368;-77
2022/09/21 12:24:11;;;;;;;0.13;0.10;;;18.70;99.80;;;;;;20838612;28;20072;-81
2022/09/21 12:34:17;;;;;;;2.67;0.80;;;17.50;99.90;;;;;;20821307;28;20121;-78
2022/09/21 12:44:51;;;;;;;0.22;0.03;;;16.90;99.90;;;;;;20857462;28;20143;-78
2022/09/21 12:55:04;;;;;;;1.17;0.52;;;16.60;99.90;;;;;;20882838;28;20428;-78
2022/09/21 13:05:32;;;;;;;1.95;0.43;;;16.90;99.90;;;;;;20905652;28;20176;-77
2022/09/21 13:15:46;;;;;;;0.57;0.10;;;17.90;99.90;;;;;;20904389;28;20068;-77
2022/09/21 13:25:58;;;;;;;0.25;0.10;;;18.30;99.90;;;;;;20895260;28;20252;-77
2022/09/21 13:36:03;;;;;;;0.75;0.20;;;19.80;99.90;;;;;;20922858;28;20125;-78
2022/09/21 13:46:05;;;;;;;1.40;0.10;;;21.60;99.30;;;;;;20914223;28;20072;-77
2022/09/21 13:56:17;;;;;;;0.95;0.32;;;22.20;96.30;;;;;;20926434;28;20040;-77
2022/09/21 14:06:26;;;;;;;1.88;0.20;;;22.50;97.70;;;;;;20927151;28;20052;-78
2022/09/21 14:16:35;;;;;;;0.40;0.08;;;22.80;95.00;;;;;;20933293;28;20538;-77
2022/09/21 14:26:40;;;;;;;1.02;0.10;;;21.30;96.90;;;;;;20952897;28;20036;-77
2022/09/21 14:36:48;;;;;;;0.30;0.13;;;19.10;99.50;;;;;;20938872;28;20809;-78
2022/09/21 14:47:16;;;;;;;0.20;0.10;;;18.10;99.90;;;;;;20941976;28;20045;-78
2022/09/21 14:57:17;;;;;;;0.30;0.20;;;17.60;99.90;;;;;;20951624;28;20135;-79
2022/09/21 15:17:53;;;;;;;1.83;0.38;;;16.70;99.90;;;;;;20950061;28;20820;-79
2022/09/21 15:27:55;;;;;;;0.35;0.25;;;17.30;99.90;;;;;;20907236;28;20048;-78
2022/09/21 15:37:59;;;;;;;0.95;0.10;;;17.70;99.90;;;;;;20920300;28;20521;-78
2022/09/21 15:48:02;;;;;;;0.50;0.20;;;17.80;99.90;;;;;;20942674;28;20098;-82
2022/09/21 15:58:19;;;;;;;0.45;0.30;;;17.60;99.90;;;;;;20935490;28;20040;-80
2022/09/21 16:08:34;;;;;;;0.60;0.20;;;17.20;99.90;;;;;;20923813;28;20040;-79
2022/09/21 16:18:46;;;;;;;0.65;0.10;;;17.10;99.90;;;;;;20944167;28;20421;-79
2022/09/21 16:28:48;;;;;;;0.22;0.10;;;16.70;99.90;;;;;;20943252;28;20610;-79
2022/09/21 16:38:49;;;;;;;0.40;0.05;;;16.60;99.90;;;;;;20950365;28;20052;-79
2022/09/21 16:48:50;;;;;;;0.28;0.10;;;16.40;99.90;;;;;;20953419;28;20748;-79
2022/09/21 16:58:51;;;;;;;0.60;0.17;;;16.20;99.90;;;;;;20889230;28;20396;-79
2022/09/21 17:08:52;;;;;;;1.83;1.00;;;15.90;99.90;;;;;;20882821;28;20032;-79
2022/09/21 17:18:54;;;;;;;1.27;0.60;;;15.50;99.90;;;;;;20903687;28;20025;-84
2022/09/21 17:28:56;;;;;;;0.77;0.30;;;15.20;99.90;;;;;;20914438;28;20415;-78
2022/09/21 17:38:57;;;;;;;0.90;0.50;;;14.80;99.90;;;;;;20891086;28;20079;-81
2022/09/21 17:48:58;;;;;;;0.98;0.30;;;14.40;99.90;;;;;;20892422;28;21600;-79
2022/09/21 17:59:01;;;;;;;2.08;0.50;;;14.00;99.90;;;;;;20902417;28;20437;-82
2022/09/21 18:09:03;;;;;;;1.30;0.70;;;13.70;99.90;;;;;;20900339;28;20117;-82
2022/09/21 18:19:29;;;;;;;1.67;0.80;;;13.40;99.90;;;;;;20933321;28;20448;-81
2022/09/21 18:29:33;;;;;;;2.47;0.82;;;13.10;99.90;;;;;;20968681;28;20508;-80
2022/09/21 18:39:49;;;;;;;2.30;1.20;;;12.70;99.90;;;;;;20970726;28;20122;-82
2022/09/21 18:50:14;;;;;;;1.38;0.60;;;12.60;99.90;;;;;;20963427;28;20560;-82
2022/09/21 19:00:16;;;;;;;1.52;0.50;;;12.60;99.90;;;;;;20974161;28;20055;-82
2022/09/21 19:10:51;;;;;;;2.13;1.13;;;12.40;99.90;;;;;;20970363;28;20033;-81
2022/09/21 19:21:11;;;;;;;1.83;0.60;;;12.30;99.90;;;;;;20943033;28;20747;-81
2022/09/21 19:31:16;;;;;;;1.77;0.90;;;12.10;99.90;;;;;;20972908;28;20111;-81
2022/09/21 19:41:44;;;;;;;2.63;1.55;;;11.90;99.90;;;;;;20984942;28;20051;-81
2022/09/21 19:51:49;;;;;;;3.03;1.00;;;11.70;99.90;;;;;;20959396;28;20044;-85
2022/09/21 20:01:55;;;;;;;3.88;1.95;;;11.60;99.90;;;;;;20948826;28;20166;-81
2022/09/21 20:12:27;;;;;;;2.40;1.67;;;11.40;99.90;;;;;;20949731;28;20036;-80
2022/09/21 20:22:33;;;;;;;3.67;1.65;;;11.30;99.90;;;;;;20923420;28;20105;-81
2022/09/21 20:32:37;;;;;;;3.65;1.70;;;11.20;99.90;;;;;;20952035;28;20048;-81
2022/09/21 20:42:39;;;;;;;3.80;2.17;;;11.10;99.90;;;;;;20944430;28;20071;-81
2022/09/21 20:52:41;;;;;;;2.17;0.80;;;11.10;99.90;;;;;;20945486;28;20665;-82
2022/09/21 21:02:42;;;;;;;2.30;0.57;;;11.00;99.90;;;;;;20947671;28;20029;-81
2022/09/21 21:12:44;;;;;;;1.45;0.50;;;10.80;99.90;;;;;;20935601;28;20526;-81
2022/09/21 21:22:48;;;;;;;6.43;1.60;;;10.70;99.90;;;;;;20943006;28;20040;-81
2022/09/21 21:32:51;;;;;;;1.27;0.77;;;10.60;99.90;;;;;;20947878;28;20404;-80
2022/09/21 21:42:55;;;;;;;1.63;0.93;;;10.60;99.90;;;;;;20962037;28;20036;-81
2022/09/21 21:52:59;;;;;;;1.75;1.25;;;10.50;99.90;;;;;;20941342;28;20032;-80
2022/09/21 22:03:01;;;;;;;1.98;0.90;;;10.40;99.90;;;;;;20956983;28;20028;-81
2022/09/21 22:13:05;;;;;;;2.40;1.10;;;10.30;99.90;;;;;;20943708;28;21775;-80
2022/09/21 22:23:07;;;;;;;2.33;1.05;;;10.20;99.90;;;;;;20945297;28;20044;-80
2022/09/21 22:33:08;;;;;;;2.38;1.38;;;10.10;99.90;;;;;;20950632;28;20085;-80
2022/09/21 22:43:12;;;;;;;1.92;1.13;;;10.00;99.90;;;;;;20932523;28;20036;-80
2022/09/21 22:53:13;;;;;;;5.22;2.00;;;10.00;99.90;;;;;;20950026;28;20469;-80
2022/09/21 23:03:16;;;;;;;2.08;0.88;;;9.90;99.90;;;;;;20958362;28;20400;-81
2022/09/21 23:13:17;;;;;;;1.92;0.70;;;9.80;99.90;;;;;;20944175;28;20041;-81
2022/09/21 23:23:18;;;;;;;1.95;1.17;;;9.70;99.90;;;;;;20946915;28;20098;-80
2022/09/21 23:33:19;;;;;;;2.88;1.08;;;9.70;99.90;;;;;;20955369;28;20052;-80
2022/09/21 23:43:20;;;;;;;1.75;0.85;;;9.60;99.90;;;;;;20954199;28;20053;-80
2022/09/21 23:53:22;;;;;;;1.85;0.95;;;9.50;99.90;;;;;;20964178;28;20158;-80
